Time;durP1;ratioP1;P1;durP2;ratioP2;P2;SDS_P1;SDS_P2;PMS_P1;PMS_P2;Temp;Humidity;BMP_temperature;BMP_pressure;BME280_temperature;BME280_humidity;BME280_pressure;Samples;Min_cycle;Max_cycle;Signal;HPM_P1;HPM_P2
2022/07/24 00:00:29;;;;;;;11.50;8.57;;;;;;;23.29;48.94;98289.84;8315389;28;20233;-82
2022/07/24 00:04:32;;;;;;;8.90;8.10;;;;;;;23.34;48.38;98291.09;8316577;28;20231;-80
2022/07/24 00:08:38;;;;;;;13.57;8.50;;;;;;;23.33;48.25;98288.59;8316106;28;20239;-81
2022/07/24 00:12:42;;;;;;;10.17;8.60;;;;;;;23.33;48.36;98291.22;8315930;28;20421;-79
2022/07/24 00:16:46;;;;;;;12.10;8.40;;;;;;;23.28;48.48;98293.44;8315877;28;20228;-80
2022/07/24 00:20:49;;;;;;;11.77;9.70;;;;;;;23.18;48.91;98291.66;8315432;28;20227;-84
2022/07/24 00:24:52;;;;;;;13.03;8.43;;;;;;;23.18;48.84;98296.09;8315378;28;20242;-84
2022/07/24 00:28:56;;;;;;;13.87;9.00;;;;;;;23.14;48.83;98295.53;8315788;28;20243;-84
2022/07/24 00:32:59;;;;;;;13.27;8.50;;;;;;;23.17;48.87;98294.41;8315647;28;20233;-85
2022/07/24 00:37:01;;;;;;;9.20;8.23;;;;;;;23.15;49.44;98288.44;8315526;28;20542;-84
2022/07/24 00:41:05;;;;;;;11.63;9.00;;;;;;;23.13;49.40;98283.31;8315687;28;20235;-84
2022/07/24 00:45:10;;;;;;;11.13;8.97;;;;;;;23.09;49.17;98286.38;8315096;28;20249;-83
2022/07/24 00:49:27;;;;;;;10.43;8.87;;;;;;;23.08;49.39;98292.63;8315425;28;20232;-84
2022/07/24 00:53:30;;;;;;;11.10;8.87;;;;;;;23.09;49.05;98294.28;8315199;28;20232;-84
2022/07/24 00:57:33;;;;;;;12.67;8.97;;;;;;;23.07;49.12;98291.78;8315108;28;20394;-84
2022/07/24 01:01:37;;;;;;;9.00;8.10;;;;;;;23.03;49.23;98295.69;8314767;28;20236;-85
2022/07/24 01:05:41;;;;;;;15.33;8.83;;;;;;;22.98;49.79;98297.88;8315377;28;20225;-84
2022/07/24 01:09:44;;;;;;;9.67;8.40;;;;;;;22.97;49.92;98294.41;8315181;28;20228;-85
2022/07/24 01:13:50;;;;;;;11.30;8.77;;;;;;;22.95;49.74;98303.44;8314641;28;20562;-85
2022/07/24 01:17:54;;;;;;;12.83;9.10;;;;;;;22.94;49.66;98305.25;8314820;28;20232;-84
2022/07/24 01:21:58;;;;;;;10.37;8.60;;;;;;;22.82;49.59;98301.88;8315221;28;20239;-85
2022/07/24 01:26:01;;;;;;;9.30;8.40;;;;;;;22.84;49.33;98297.28;8315151;28;20233;-85
2022/07/24 01:30:05;;;;;;;8.83;8.03;;;;;;;22.77;49.41;98292.72;8315147;28;20252;-85
2022/07/24 01:34:08;;;;;;;12.33;8.50;;;;;;;22.68;50.09;98291.75;8314662;28;20520;-84
2022/07/24 01:38:14;;;;;;;9.10;8.17;;;;;;;22.70;49.93;98287.16;8319234;28;20534;-84
2022/07/24 01:42:19;;;;;;;10.63;8.37;;;;;;;22.65;50.25;98282.28;8320785;28;20240;-84
2022/07/24 01:46:22;;;;;;;9.60;7.90;;;;;;;22.68;49.92;98280.34;8320991;28;20228;-84
2022/07/24 01:50:25;;;;;;;9.20;7.50;;;;;;;22.62;50.07;98282.56;8320670;28;20551;-84
2022/07/24 01:54:30;;;;;;;8.90;8.00;;;;;;;22.64;49.87;98285.06;8320685;28;20236;-84
2022/07/24 01:58:32;;;;;;;12.00;8.47;;;;;;;22.60;50.42;98276.59;8320453;28;20240;-84
2022/07/24 02:02:37;;;;;;;11.20;8.33;;;;;;;22.59;50.53;98282.81;8320214;28;20241;-84
2022/07/24 02:06:40;;;;;;;9.30;8.40;;;;;;;22.53;50.46;98286.00;8320363;28;20255;-84
2022/07/24 02:10:44;;;;;;;12.97;9.47;;;;;;;22.34;50.75;98288.63;8320221;28;20239;-84
2022/07/24 02:14:47;;;;;;;9.27;8.37;;;;;;;22.40;50.11;98294.16;8319448;28;20230;-82
2022/07/24 02:18:50;;;;;;;10.47;8.50;;;;;;;22.32;50.25;98287.91;8319491;28;20227;-84
2022/07/24 02:22:53;;;;;;;12.40;9.33;;;;;;;22.25;50.32;98288.44;8319966;28;20232;-84
2022/07/24 02:26:57;;;;;;;9.70;8.80;;;;;;;22.31;50.07;98284.41;8319521;28;20240;-84
2022/07/24 02:31:05;;;;;;;9.83;8.43;;;;;;;22.26;50.69;98284.00;8319372;28;20616;-85
2022/07/24 02:35:09;;;;;;;10.10;8.97;;;;;;;22.29;50.56;98283.72;8319196;28;20232;-84
2022/07/24 02:39:11;;;;;;;11.07;8.80;;;;;;;22.23;50.88;98289.50;8319444;28;20228;-84
2022/07/24 02:43:16;;;;;;;10.53;9.50;;;;;;;22.22;50.98;98293.97;8319224;28;20419;-84
2022/07/24 02:47:19;;;;;;;11.23;8.73;;;;;;;22.20;50.79;98284.50;8318363;28;20243;-84
2022/07/24 02:51:21;;;;;;;11.63;9.33;;;;;;;22.14;50.94;98295.59;8318916;28;20239;-84
2022/07/24 02:55:26;;;;;;;11.43;9.47;;;;;;;22.13;51.09;98296.56;8318732;28;20236;-85
2022/07/24 02:59:30;;;;;;;10.33;9.33;;;;;;;22.16;50.84;98296.28;8318719;28;20228;-84
2022/07/24 03:03:33;;;;;;;10.80;9.47;;;;;;;22.12;51.67;98287.78;8318271;28;20224;-85
2022/07/24 03:07:36;;;;;;;12.27;9.67;;;;;;;22.13;51.74;98294.75;8318536;28;20232;-85
2022/07/24 03:11:39;;;;;;;10.07;9.07;;;;;;;22.08;51.55;98291.66;8318182;28;20231;-83
2022/07/24 03:15:43;;;;;;;10.90;9.80;;;;;;;22.03;51.41;98299.16;8318009;28;20300;-84
2022/07/24 03:19:46;;;;;;;10.77;9.77;;;;;;;21.94;52.17;98295.50;8318003;28;20232;-84
2022/07/24 03:23:49;;;;;;;11.97;9.33;;;;;;;22.08;51.56;98304.03;8317479;28;20239;-84
2022/07/24 03:27:52;;;;;;;10.70;9.60;;;;;;;22.10;51.58;98297.66;8317604;28;20248;-84
2022/07/24 03:31:56;;;;;;;12.97;9.33;;;;;;;21.99;51.76;98295.09;8317357;28;20255;-84
2022/07/24 03:35:59;;;;;;;13.40;10.13;;;;;;;21.97;51.58;98297.03;8317155;28;20235;-84
2022/07/24 03:40:02;;;;;;;10.70;9.60;;;;;;;22.00;51.73;98300.25;8317121;28;20239;-84
2022/07/24 03:44:05;;;;;;;10.73;9.10;;;;;;;21.94;51.86;98294.69;8317292;28;20233;-84
2022/07/24 03:48:10;;;;;;;11.17;10.00;;;;;;;21.94;51.97;98300.78;8316693;28;20236;-84
2022/07/24 03:52:13;;;;;;;11.00;9.60;;;;;;;21.92;52.23;98294.81;8317072;28;20229;-84
2022/07/24 03:56:18;;;;;;;11.30;10.30;;;;;;;22.01;52.00;98296.66;8316854;28;20585;-84
2022/07/24 04:00:20;;;;;;;11.70;9.80;;;;;;;21.93;51.79;98306.19;8315631;28;20227;-84
2022/07/24 04:04:25;;;;;;;11.90;10.70;;;;;;;21.99;51.94;98300.38;8316433;28;20229;-84
2022/07/24 04:08:28;;;;;;;13.13;10.23;;;;;;;21.95;52.19;98304.25;8316422;28;20243;-84
2022/07/24 04:12:31;;;;;;;11.23;10.13;;;;;;;22.07;52.26;98305.84;8316529;28;20237;-84
2022/07/24 04:16:33;;;;;;;12.20;10.17;;;;;;;21.99;52.63;98314.41;8316105;28;20233;-84
2022/07/24 04:20:38;;;;;;;11.33;10.13;;;;;;;22.01;52.50;98316.91;8315796;28;20252;-84
2022/07/24 04:24:40;;;;;;;11.50;10.40;;;;;;;22.05;51.83;98316.50;8316002;28;20254;-84
2022/07/24 04:28:43;;;;;;;11.80;10.43;;;;;;;22.13;52.03;98321.13;8316002;28;20239;-84
2022/07/24 04:32:46;;;;;;;11.07;9.97;;;;;;;22.20;52.05;98318.78;8315528;28;20231;-84
2022/07/24 04:36:50;;;;;;;11.70;10.00;;;;;;;22.19;51.95;98320.59;8315355;28;20239;-84
2022/07/24 04:40:53;;;;;;;11.83;9.53;;;;;;;22.20;51.95;98319.63;8315552;28;20243;-85
2022/07/24 04:44:56;;;;;;;13.43;10.73;;;;;;;22.27;52.17;98330.50;8315562;28;20427;-84
2022/07/24 04:48:59;;;;;;;12.20;11.00;;;;;;;22.43;51.94;98324.75;8315475;28;20236;-84
2022/07/24 04:53:06;;;;;;;11.87;10.77;;;;;;;22.51;51.19;98316.97;8315483;28;20233;-84
2022/07/24 04:57:09;;;;;;;12.13;10.90;;;;;;;22.61;51.28;98327.56;8315220;28;20228;-85
2022/07/24 05:01:12;;;;;;;12.20;10.70;;;;;;;22.75;51.04;98327.19;8314890;28;20232;-84
2022/07/24 05:05:15;;;;;;;11.90;10.33;;;;;;;22.72;51.10;98326.63;8314895;28;20392;-84
2022/07/24 05:09:19;;;;;;;11.97;10.70;;;;;;;22.59;50.62;98326.88;8315149;28;20231;-84
2022/07/24 05:13:21;;;;;;;11.07;9.97;;;;;;;22.73;50.71;98326.50;8325662;28;20232;-84
2022/07/24 05:17:24;;;;;;;11.90;10.70;;;;;;;22.76;50.97;98330.66;8325782;28;20236;-84
2022/07/24 05:21:27;;;;;;;11.63;9.90;;;;;;;22.91;50.71;98339.03;8326052;28;20563;-84
2022/07/24 05:25:32;;;;;;;11.33;10.23;;;;;;;22.91;50.90;98333.75;8325849;28;20224;-85
2022/07/24 05:29:34;;;;;;;10.87;9.87;;;;;;;22.71;51.43;98332.84;8326145;28;20259;-85
2022/07/24 05:33:39;;;;;;;12.80;10.17;;;;;;;22.93;50.94;98324.69;8326030;28;20502;-85
2022/07/24 05:37:42;;;;;;;9.87;8.97;;;;;;;23.06;50.51;98328.94;8325606;28;20576;-84
2022/07/24 05:41:46;;;;;;;12.43;10.23;;;;;;;22.96;50.57;98320.94;8325724;28;20260;-84
2022/07/24 05:45:48;;;;;;;10.00;9.10;;;;;;;23.24;50.66;98324.59;8325078;28;20228;-84
2022/07/24 05:49:51;;;;;;;13.57;11.73;;;;;;;22.77;51.71;98321.75;8325190;28;20236;-84
2022/07/24 05:53:54;;;;;;;12.10;9.97;;;;;;;23.36;50.38;98325.28;8325633;28;20558;-85
2022/07/24 05:57:58;;;;;;;11.17;9.83;;;;;;;23.58;50.08;98324.97;8325156;28;20236;-84
2022/07/24 06:02:04;;;;;;;10.80;9.80;;;;;;;23.81;49.57;98330.81;8325324;28;20240;-84
2022/07/24 06:06:08;;;;;;;10.70;9.57;;;;;;;23.79;49.90;98330.13;8325457;28;20240;-87
2022/07/24 06:10:14;;;;;;;11.33;9.93;;;;;;;23.90;49.61;98333.59;8324794;28;20225;-85
2022/07/24 06:14:18;;;;;;;15.20;10.30;;;;;;;24.07;49.11;98335.47;8325233;28;20287;-85
2022/07/24 06:18:21;;;;;;;12.00;10.47;;;;;;;24.28;49.19;98337.06;8325123;28;20423;-85
2022/07/24 06:22:24;;;;;;;10.83;9.83;;;;;;;24.26;48.91;98331.09;8322703;28;20228;-86
2022/07/24 06:26:27;;;;;;;12.13;11.03;;;;;;;24.00;49.42;98329.91;8319782;28;20235;-86
2022/07/24 06:30:31;;;;;;;11.17;10.00;;;;;;;24.46;49.12;98322.06;8320221;28;20233;-84
2022/07/24 06:34:34;;;;;;;14.00;11.10;;;;;;;24.05;49.30;98323.38;8320510;28;20240;-84
2022/07/24 06:38:37;;;;;;;11.30;10.30;;;;;;;24.14;49.63;98322.47;8319312;28;20433;-85
2022/07/24 06:42:39;;;;;;;14.10;10.40;;;;;;;24.02;50.04;98319.19;8319848;28;20231;-84
2022/07/24 06:46:44;;;;;;;12.33;10.60;;;;;;;24.34;49.57;98331.19;8319328;28;20555;-84
2022/07/24 06:50:47;;;;;;;12.27;11.00;;;;;;;24.20;49.36;98327.22;8319327;28;20292;-84
2022/07/24 06:54:50;;;;;;;11.53;10.37;;;;;;;24.76;48.82;98325.41;8318792;28;20224;-84
2022/07/24 06:58:52;;;;;;;11.83;10.60;;;;;;;24.61;49.64;98321.59;8318182;28;20241;-84
2022/07/24 07:02:57;;;;;;;12.60;9.97;;;;;;;24.83;48.60;98328.28;8318449;28;20233;-85
2022/07/24 07:07:00;;;;;;;11.03;10.03;;;;;;;25.24;48.03;98329.53;8318515;28;20431;-84
2022/07/24 07:11:03;;;;;;;11.13;10.13;;;;;;;25.62;47.80;98332.81;8318318;28;20419;-84
2022/07/24 07:15:06;;;;;;;10.90;9.80;;;;;;;26.01;47.16;98328.94;8317989;28;20234;-85
2022/07/24 07:19:11;;;;;;;12.37;11.17;;;;;;;25.64;47.27;98324.72;8317737;28;20413;-84
2022/07/24 07:23:14;;;;;;;11.27;10.27;;;;;;;25.83;47.33;98329.81;8314920;28;20226;-86
2022/07/24 07:27:17;;;;;;;12.40;10.00;;;;;;;26.12;46.66;98321.56;8320438;28;20287;-85
2022/07/24 07:31:19;;;;;;;11.67;10.43;;;;;;;26.17;47.33;98322.91;8316582;28;20230;-85
2022/07/24 07:35:24;;;;;;;13.37;10.00;;;;;;;26.64;45.44;98322.47;8315668;28;20557;-86
2022/07/24 07:39:29;;;;;;;11.80;10.10;;;;;;;26.88;45.32;98321.66;8314194;28;20241;-83
2022/07/24 07:43:32;;;;;;;13.33;11.23;;;;;;;26.62;45.54;98324.44;8316300;28;20240;-83
2022/07/24 07:47:36;;;;;;;10.50;9.40;;;;;;;27.14;45.29;98320.72;8316278;28;20231;-83
2022/07/24 07:51:41;;;;;;;11.97;10.30;;;;;;;26.78;45.28;98319.16;8316469;28;20239;-82
2022/07/24 07:55:48;;;;;;;11.43;10.27;;;;;;;26.44;46.25;98324.50;8316086;28;20225;-85
2022/07/24 07:59:51;;;;;;;17.70;10.13;;;;;;;27.30;45.13;98323.41;8313548;28;20616;-83
2022/07/24 08:03:54;;;;;;;10.37;9.27;;;;;;;27.56;43.77;98330.41;8316222;28;20250;-86
2022/07/24 08:07:58;;;;;;;12.40;9.40;;;;;;;28.19;43.45;98326.13;8316535;28;20241;-88
2022/07/24 08:12:01;;;;;;;10.60;9.33;;;;;;;27.81;42.92;98331.19;8318511;28;20306;-85
2022/07/24 08:16:04;;;;;;;10.27;9.03;;;;;;;28.26;42.67;98321.78;8339143;28;20234;-85
2022/07/24 08:20:08;;;;;;;9.73;8.73;;;;;;;28.88;41.05;98314.84;8320729;28;20239;-83
2022/07/24 08:24:12;;;;;;;11.30;8.60;;;;;;;28.95;40.59;98321.13;8315771;28;20231;-82
2022/07/24 08:28:15;;;;;;;9.43;8.43;;;;;;;29.39;39.18;98315.97;8315754;28;20223;-86
2022/07/24 08:32:18;;;;;;;9.30;8.00;;;;;;;29.34;38.61;98312.19;8315680;28;20229;-80
2022/07/24 08:36:21;;;;;;;8.87;8.07;;;;;;;29.07;38.55;98318.88;8314897;28;20229;-82
2022/07/24 08:40:25;;;;;;;8.33;7.53;;;;;;;29.34;39.09;98315.69;8315390;28;20516;-82
2022/07/24 08:44:28;;;;;;;10.57;8.03;;;;;;;29.30;38.84;98317.06;8314292;28;20423;-80
2022/07/24 08:48:32;;;;;;;8.77;7.03;;;;;;;30.09;37.13;98313.97;8314886;28;20232;-82
2022/07/24 08:52:36;;;;;;;7.43;6.73;;;;;;;30.23;37.09;98300.81;8314719;28;20545;-82
2022/07/24 08:56:47;;;;;;;9.27;7.20;;;;;;;30.11;36.35;98300.44;8314630;28;20367;-82
2022/07/24 09:00:50;;;;;;;7.73;6.80;;;;;;;30.29;36.03;98311.59;8314144;28;20229;-82
2022/07/24 09:04:59;;;;;;;7.73;6.97;;;;;;;30.32;35.06;98305.06;8314681;28;20426;-82
2022/07/24 09:09:03;;;;;;;8.37;6.57;;;;;;;31.02;34.88;98297.44;8314516;28;20533;-83
2022/07/24 09:13:18;;;;;;;8.07;6.53;;;;;;;31.19;32.97;98298.84;8314474;28;20245;-82
2022/07/24 09:17:22;;;;;;;9.60;6.27;;;;;;;31.58;33.78;98294.03;8314129;28;20314;-82
2022/07/24 09:21:28;;;;;;;7.00;6.37;;;;;;;31.38;33.11;98292.81;8314489;28;20228;-82
2022/07/24 09:25:31;;;;;;;6.60;6.00;;;;;;;31.70;32.50;98293.31;8314036;28;20235;-83
2022/07/24 09:29:35;;;;;;;7.27;6.47;;;;;;;32.17;30.93;98300.81;8314279;28;20413;-83
2022/07/24 09:33:38;;;;;;;8.73;6.50;;;;;;;32.22;30.67;98293.00;8314172;28;20228;-83
2022/07/24 09:37:41;;;;;;;8.43;5.60;;;;;;;32.41;31.36;98284.22;8314227;28;20423;-82
2022/07/24 09:41:51;;;;;;;7.77;6.07;;;;;;;32.14;30.46;98278.75;8313909;28;20447;-82
2022/07/24 09:46:01;;;;;;;7.63;6.67;;;;;;;31.91;30.19;98284.38;8313810;28;20236;-83
2022/07/24 09:50:15;;;;;;;7.97;6.33;;;;;;;32.02;30.33;98274.16;8313995;28;20241;-82
2022/07/24 09:54:29;;;;;;;6.63;5.93;;;;;;;31.96;30.46;98279.22;8314080;28;20309;-83
2022/07/24 09:58:33;;;;;;;6.47;5.70;;;;;;;32.67;29.67;98278.16;8316881;28;20234;-80
2022/07/24 10:02:38;;;;;;;9.50;5.63;;;;;;;33.12;28.79;98282.97;8319841;28;20550;-77
2022/07/24 10:06:44;;;;;;;7.63;5.63;;;;;;;33.25;28.13;98288.34;8319598;28;20230;-76
2022/07/24 10:10:48;;;;;;;5.93;5.30;;;;;;;33.76;28.66;98278.84;8318756;28;20231;-77
2022/07/24 10:15:00;;;;;;;6.50;5.83;;;;;;;33.84;27.12;98285.84;8319365;28;20246;-80
2022/07/24 10:19:05;;;;;;;6.30;5.50;;;;;;;34.03;27.04;98279.59;8319559;28;20251;-80
2022/07/24 10:23:09;;;;;;;9.47;5.70;;;;;;;34.09;27.36;98265.31;8318952;28;20224;-79
2022/07/24 10:27:22;;;;;;;7.37;5.40;;;;;;;34.42;27.22;98267.09;8318965;28;20232;-81
2022/07/24 10:31:26;;;;;;;6.17;5.53;;;;;;;33.64;27.06;98261.72;8319024;28;20228;-84
2022/07/24 10:35:33;;;;;;;6.80;5.00;;;;;;;32.79;27.49;98251.56;8316072;28;20232;-84
2022/07/24 10:39:42;;;;;;;6.73;5.20;;;;;;;32.14;27.23;98254.63;8318745;28;20248;-78
2022/07/24 10:44:12;;;;;;;7.20;5.37;;;;;;;32.01;27.54;98254.53;8318314;28;20245;-83
2022/07/24 10:48:30;;;;;;;8.03;5.50;;;;;;;31.09;28.94;98247.50;8318750;28;20243;-85
2022/07/24 10:52:36;;;;;;;7.17;5.27;;;;;;;30.99;30.43;98250.50;8318738;28;20297;-84
2022/07/24 10:56:41;;;;;;;7.30;5.47;;;;;;;30.88;29.98;98249.16;8318319;28;20556;-83
2022/07/24 11:00:45;;;;;;;6.33;5.67;;;;;;;31.24;29.26;98234.06;8317486;28;20295;-78
2022/07/24 11:04:48;;;;;;;7.40;5.90;;;;;;;31.46;29.42;98241.03;8317160;28;20235;-77
2022/07/24 11:08:53;;;;;;;7.77;5.23;;;;;;;32.06;29.44;98240.56;8317347;28;20238;-82
2022/07/24 11:12:56;;;;;;;7.30;5.83;;;;;;;32.91;28.42;98241.06;8318077;28;20230;-80
2022/07/24 11:16:59;;;;;;;6.77;6.07;;;;;;;33.60;27.47;98230.94;8317574;28;20232;-85
2022/07/24 11:21:02;;;;;;;6.80;5.60;;;;;;;32.66;27.78;98225.53;8317794;28;20228;-84
2022/07/24 11:25:24;;;;;;;6.63;5.30;;;;;;;33.20;27.79;98223.75;8318249;28;20241;-83
2022/07/24 11:29:29;;;;;;;6.40;5.70;;;;;;;33.52;26.27;98223.91;8316975;28;20406;-82
2022/07/24 11:33:33;;;;;;;7.73;5.73;;;;;;;33.44;26.93;98221.47;8317324;28;20250;-79
2022/07/24 11:37:36;;;;;;;5.97;5.37;;;;;;;34.07;25.83;98207.47;8317173;28;20237;-83
2022/07/24 11:41:47;;;;;;;5.60;5.00;;;;;;;34.44;26.53;98202.34;8317516;28;20239;-80
2022/07/24 11:45:52;;;;;;;6.00;5.27;;;;;;;34.70;25.94;98201.38;8316340;28;20232;-83
2022/07/24 11:49:57;;;;;;;8.77;5.37;;;;;;;34.20;24.73;98195.88;8317350;28;20234;-81
2022/07/24 11:54:01;;;;;;;5.27;4.73;;;;;;;34.28;25.50;98192.91;8317332;28;20421;-82
2022/07/24 11:58:06;;;;;;;7.67;5.43;;;;;;;34.78;25.26;98182.28;8319183;28;20239;-83
2022/07/24 12:02:29;;;;;;;6.30;4.93;;;;;;;35.11;25.22;98188.41;8316350;28;20405;-80
2022/07/24 12:06:32;;;;;;;7.28;5.13;;;;;;;34.61;23.94;98173.06;8316292;28;20279;-82
2022/07/24 12:10:35;;;;;;;7.00;5.68;;;;;;;34.06;24.76;98179.78;8316344;28;20240;-82
2022/07/24 12:14:40;;;;;;;7.00;5.63;;;;;;;32.87;25.40;98173.59;8316376;28;20236;-84
2022/07/24 12:18:43;;;;;;;6.53;5.38;;;;;;;33.91;25.18;98155.06;8315788;28;20232;-80
2022/07/24 12:22:46;;;;;;;6.05;4.88;;;;;;;33.11;25.68;98166.81;8315364;28;20236;-83
2022/07/24 12:26:50;;;;;;;9.13;5.32;;;;;;;32.82;25.83;98151.09;8315427;28;20224;-84
2022/07/24 12:30:55;;;;;;;7.20;5.95;;;;;;;33.39;26.28;98148.78;8316018;28;20244;-78
2022/07/24 12:34:58;;;;;;;8.77;5.23;;;;;;;34.19;25.58;98135.91;8315308;28;20236;-79
2022/07/24 12:39:17;;;;;;;6.83;5.37;;;;;;;34.24;25.27;98133.41;8315464;28;20428;-80
2022/07/24 12:43:24;;;;;;;8.30;5.53;;;;;;;32.63;26.11;98132.13;8315045;28;20238;-75
2022/07/24 12:47:29;;;;;;;17.80;5.73;;;;;;;32.25;27.01;98129.16;8314765;28;20258;-76
2022/07/24 12:51:51;;;;;;;5.67;4.90;;;;;;;32.23;27.88;98131.22;8314701;28;20663;-79
2022/07/24 12:56:05;;;;;;;5.67;5.17;;;;;;;32.08;28.62;98126.88;8331718;28;20231;-79
2022/07/24 13:00:08;;;;;;;5.57;5.07;;;;;;;31.93;28.02;98118.16;8344581;28;20253;-80
2022/07/24 13:04:13;;;;;;;6.37;5.30;;;;;;;31.76;28.20;98110.47;8314879;28;20533;-81
2022/07/24 13:08:16;;;;;;;6.13;5.00;;;;;;;31.64;28.43;98109.38;8315938;28;20239;-82
2022/07/24 13:12:23;;;;;;;5.77;5.17;;;;;;;31.55;28.18;98098.03;8314910;28;20288;-81
2022/07/24 13:16:28;;;;;;;7.33;5.63;;;;;;;31.49;28.56;98104.19;8315593;28;20591;-81
2022/07/24 13:20:32;;;;;;;6.73;5.40;;;;;;;31.31;29.09;98102.00;8312524;28;20241;-82
2022/07/24 13:24:37;;;;;;;6.33;5.37;;;;;;;31.31;28.70;98102.00;8311388;28;20232;-82
2022/07/24 13:28:40;;;;;;;6.00;5.30;;;;;;;31.25;29.52;98100.13;8313599;28;20570;-81
2022/07/24 13:32:43;;;;;;;6.20;5.57;;;;;;;32.34;28.28;98101.16;8316778;28;20232;-80
2022/07/24 13:36:47;;;;;;;5.63;5.03;;;;;;;32.15;28.53;98097.41;8320853;28;20243;-80
2022/07/24 13:40:51;;;;;;;6.50;5.30;;;;;;;31.60;28.58;98093.94;8320290;28;20251;-79
2022/07/24 13:44:53;;;;;;;8.00;5.20;;;;;;;31.81;28.88;98098.31;8320850;28;20246;-79
2022/07/24 13:48:57;;;;;;;7.10;5.57;;;;;;;32.70;27.39;98089.25;8321147;28;20246;-84
2022/07/24 13:53:01;;;;;;;6.97;5.53;;;;;;;32.33;27.91;98084.25;8320751;28;20244;-83
2022/07/24 13:57:04;;;;;;;5.73;5.20;;;;;;;32.47;27.60;98085.09;8320457;28;20422;-82
2022/07/24 14:01:07;;;;;;;6.10;5.50;;;;;;;33.12;27.46;98071.03;8319192;28;20240;-82
2022/07/24 14:05:10;;;;;;;6.53;5.27;;;;;;;33.46;27.26;98056.47;8320132;28;20233;-82
2022/07/24 14:09:15;;;;;;;6.23;5.00;;;;;;;33.57;25.46;98062.25;8320238;28;20541;-81
2022/07/24 14:13:18;;;;;;;6.63;5.03;;;;;;;33.50;25.38;98046.97;8319993;28;20243;-84
2022/07/24 14:17:20;;;;;;;5.70;4.97;;;;;;;33.61;25.11;98045.47;8320064;28;20302;-88
2022/07/24 14:21:23;;;;;;;7.00;4.60;;;;;;;33.74;25.57;98046.47;8319735;28;20253;-83
2022/07/24 14:25:28;;;;;;;5.37;4.83;;;;;;;33.73;25.34;98039.47;8319466;28;20232;-83
2022/07/24 14:29:31;;;;;;;5.60;5.10;;;;;;;33.63;24.95;98037.22;8319370;28;20414;-84
2022/07/24 14:33:33;;;;;;;7.40;6.23;;;;;;;33.74;25.23;98020.47;8319206;28;20537;-83
2022/07/24 14:37:37;;;;;;;11.73;10.60;;;;;;;33.56;25.96;98010.38;8318807;28;20222;-83
2022/07/24 14:41:41;;;;;;;8.40;6.30;;;;;;;33.78;24.86;98015.47;8318972;28;20393;-84
2022/07/24 14:45:44;;;;;;;6.97;5.20;;;;;;;33.84;24.67;98003.88;8318291;28;20235;-87
2022/07/24 14:49:47;;;;;;;5.53;5.00;;;;;;;33.75;24.20;98002.47;8318870;28;20241;-82
2022/07/24 14:53:50;;;;;;;5.20;4.70;;;;;;;33.77;24.82;98006.56;8319225;28;20237;-80
2022/07/24 14:57:54;;;;;;;6.57;4.90;;;;;;;33.49;24.20;97996.16;8318463;28;20242;-81
2022/07/24 15:01:57;;;;;;;6.00;4.73;;;;;;;32.67;25.51;98003.84;8318152;28;20429;-81
2022/07/24 15:06:00;;;;;;;8.07;5.13;;;;;;;33.27;25.76;97993.00;8340633;28;20412;-82
2022/07/24 15:10:04;;;;;;;8.50;4.93;;;;;;;33.30;24.71;97990.72;8350883;28;20235;-82
2022/07/24 15:14:08;;;;;;;5.17;4.67;;;;;;;33.23;24.44;97984.53;8350764;28;20438;-84
2022/07/24 15:18:11;;;;;;;5.77;4.77;;;;;;;33.27;24.72;97979.56;8350865;28;20231;-81
2022/07/24 15:22:14;;;;;;;6.00;4.57;;;;;;;33.42;25.65;97973.94;8350279;28;20235;-82
2022/07/24 15:26:17;;;;;;;6.10;4.70;;;;;;;33.24;24.31;97972.78;8350213;28;20242;-78
2022/07/24 15:30:21;;;;;;;5.53;4.57;;;;;;;32.99;25.00;97974.50;8350164;28;20236;-83
2022/07/24 15:34:34;;;;;;;4.93;4.50;;;;;;;32.56;25.81;97969.63;8350392;28;20541;-85
2022/07/24 15:38:37;;;;;;;5.17;4.57;;;;;;;32.22;26.62;97967.00;8337019;28;20241;-84
2022/07/24 15:42:39;;;;;;;6.37;4.67;;;;;;;32.30;26.17;97963.28;8317030;28;20242;-79
2022/07/24 15:46:44;;;;;;;5.23;4.70;;;;;;;32.58;25.91;97949.66;8316890;28;20551;-79
2022/07/24 15:50:52;;;;;;;8.00;5.33;;;;;;;32.41;25.41;97949.25;8316317;28;20243;-80
2022/07/24 15:54:55;;;;;;;6.00;5.10;;;;;;;32.14;26.01;97945.78;8315853;28;20246;-80
2022/07/24 15:58:59;;;;;;;8.27;4.77;;;;;;;32.20;25.77;97936.09;8315245;28;20334;-81
2022/07/24 16:03:04;;;;;;;5.97;5.00;;;;;;;32.04;26.01;97940.00;8316673;28;20235;-83
2022/07/24 16:07:08;;;;;;;5.03;4.60;;;;;;;32.20;25.75;97938.78;8315712;28;20256;-86
2022/07/24 16:11:12;;;;;;;5.67;5.17;;;;;;;32.11;25.87;97922.91;8316724;28;20235;-84
2022/07/24 16:15:15;;;;;;;5.43;4.67;;;;;;;31.68;26.31;97925.97;8315948;28;20239;-83
2022/07/24 16:19:19;;;;;;;5.93;4.63;;;;;;;31.54;26.53;97924.28;8316314;28;20266;-82
2022/07/24 16:23:23;;;;;;;7.70;4.80;;;;;;;31.66;26.36;97919.16;8316121;28;20219;-83
2022/07/24 16:27:26;;;;;;;7.77;4.80;;;;;;;31.34;26.52;97919.69;8316130;28;20253;-83
2022/07/24 16:31:30;;;;;;;5.10;4.70;;;;;;;31.65;26.35;97918.34;8315764;28;20240;-79
2022/07/24 16:35:34;;;;;;;5.50;4.97;;;;;;;31.29;27.45;97908.75;8338174;28;20299;-83
2022/07/24 16:39:37;;;;;;;5.30;4.80;;;;;;;31.33;27.29;97909.19;8326733;28;20241;-84
2022/07/24 16:43:44;;;;;;;5.10;4.50;;;;;;;31.16;26.88;97911.41;8314995;28;20531;-84
2022/07/24 16:47:47;;;;;;;5.37;4.87;;;;;;;31.26;27.33;97900.31;8314452;28;20236;-81
2022/07/24 16:51:52;;;;;;;5.70;4.70;;;;;;;31.30;27.33;97899.72;8314794;28;20224;-83
2022/07/24 16:55:55;;;;;;;5.20;4.60;;;;;;;31.34;26.99;97895.63;8315103;28;20423;-82
2022/07/24 16:59:57;;;;;;;6.10;4.50;;;;;;;31.34;27.27;97894.81;8314863;28;20245;-83
2022/07/24 17:04:00;;;;;;;5.67;4.40;;;;;;;31.26;27.52;97887.75;8314886;28;20237;-82
2022/07/24 17:08:05;;;;;;;5.97;4.50;;;;;;;31.17;27.04;97889.00;8314795;28;20429;-82
2022/07/24 17:12:09;;;;;;;5.47;4.57;;;;;;;31.09;27.07;97886.47;8314837;28;20229;-81
2022/07/24 17:16:12;;;;;;;5.60;5.07;;;;;;;30.97;27.18;97887.06;8322513;28;21376;-81
2022/07/24 17:20:16;;;;;;;5.73;4.70;;;;;;;30.93;27.09;97883.16;8315602;28;20510;-83
2022/07/24 17:24:20;;;;;;;7.40;4.83;;;;;;;30.80;26.92;97883.88;8317727;28;20238;-81
2022/07/24 17:28:23;;;;;;;5.30;4.80;;;;;;;30.85;27.38;97880.63;8318853;28;20242;-86
2022/07/24 17:32:26;;;;;;;5.47;4.57;;;;;;;30.77;27.45;97881.63;8318023;28;20424;-81
2022/07/24 17:36:29;;;;;;;5.17;4.53;;;;;;;30.76;27.72;97879.16;8315258;28;20227;-80
2022/07/24 17:40:33;;;;;;;4.90;4.50;;;;;;;30.72;27.49;97886.72;8315154;28;20405;-80
2022/07/24 17:44:36;;;;;;;5.97;4.27;;;;;;;30.66;27.63;97881.38;8313571;28;20230;-81
2022/07/24 17:48:39;;;;;;;5.60;5.10;;;;;;;30.62;28.02;97880.94;8313847;28;20429;-81
2022/07/24 17:52:41;;;;;;;5.77;5.17;;;;;;;30.50;28.00;97880.69;8314131;28;20229;-81
2022/07/24 17:56:46;;;;;;;5.13;4.60;;;;;;;30.54;27.74;97879.25;8314069;28;20234;-80
2022/07/24 18:00:48;;;;;;;5.67;5.10;;;;;;;30.44;28.40;97878.78;8313215;28;20246;-80
2022/07/24 18:04:52;;;;;;;5.23;4.73;;;;;;;30.42;28.35;97878.16;8313718;28;20236;-81
2022/07/24 18:08:55;;;;;;;6.47;5.10;;;;;;;30.39;28.42;97875.91;8314163;28;20239;-81
2022/07/24 18:12:59;;;;;;;9.13;6.70;;;;;;;30.35;28.59;97874.66;8313770;28;20231;-78
2022/07/24 18:17:02;;;;;;;7.07;6.30;;;;;;;30.26;28.73;97871.25;8313384;28;20240;-77
2022/07/24 18:21:05;;;;;;;15.00;13.17;;;;;;;30.26;28.59;97871.25;8318918;28;20237;-77
2022/07/24 18:25:09;;;;;;;20.47;17.30;;;;;;;30.17;28.97;97872.44;8319729;28;20229;-76
2022/07/24 18:29:21;;;;;;;21.17;17.43;;;;;;;30.12;29.65;97866.84;8319524;28;20230;-77
2022/07/24 18:33:24;;;;;;;13.60;10.47;;;;;;;30.04;29.51;97877.69;8309511;28;20237;-78
2022/07/24 18:37:26;;;;;;;8.57;7.67;;;;;;;29.96;30.19;97870.66;8318299;28;20234;-77
2022/07/24 18:41:29;;;;;;;7.97;7.17;;;;;;;29.87;30.22;97874.47;8318869;28;20231;-79
2022/07/24 18:45:33;;;;;;;10.33;5.93;;;;;;;29.78;30.68;97869.28;8318433;28;20410;-80
2022/07/24 18:49:36;;;;;;;8.87;5.67;;;;;;;29.63;31.70;97866.66;8318488;28;20232;-78
2022/07/24 18:53:41;;;;;;;7.10;6.37;;;;;;;29.46;33.09;97872.47;8318617;28;20235;-78
2022/07/24 18:57:44;;;;;;;7.77;6.30;;;;;;;29.26;35.28;97864.25;8318507;28;20221;-78
2022/07/24 19:01:48;;;;;;;7.63;6.90;;;;;;;29.12;36.36;97866.75;8318242;28;20225;-77